Record high temperature 39.4°C Record low temperature -14.6°C Record high gust 68.5 km/h Record high average 47.2 km/h Record daily rain 55.3 mm Record low windchill -17.5°C Record high barometer 1045.0 hPa Record low barometer 970.0 hPa
Daily high pressure 1005.0 hPa Daily low pressure 1004.0 hPa Daily low windchill -3.5°C Daily high heat index -0.9°C Daily high gust speed 11.8 kmh NNE Daily high average speed 7.2 kmh NNW

This page is updated from recent data collected by a WMR200 weather station Use the Reload or Refresh facility on your browser to retrieve the latest data.

Status report of weather station: Bienvenue sur la Station Météo de Godarville



Weather report/warning/Metars

Alexandroupoli Airport , Greece (LGAL) 40-51N 025-55E 3M
Jan 23, 2019 - 02:20 PM EST / 2019.01.23 1920 UTC
Wind: from the SE (140 degrees) at 22 MPH (19 KT):0
Visibility: greater than 7 mile(s):0
Sky conditions: mostly cloudy
Weather: rain; Towering cumulus clouds observed
Temperature: 50 F (10 C)
Dew Point: 48 F (9 C)
Relative Humidity: 93%
Pressure (altimeter): 29.62 in. Hg (1003 hPa)
ob: LGAL 231920Z 14019KT 9999 RA FEW018TCU BKN025 10/09 Q1003
cycle: 19

Charleroi / Gosselies, Belgium (EBCI) 50-28N 004-27E 192M
Jan 23, 2019 - 08:20 PM EST / 2019.01.24 0120 UTC
Wind: from the NNE (020 degrees) at 8 MPH (7 KT) (direction variable):0
Visibility: 2 mile(s):0
Sky conditions: mostly cloudy
Weather: mist
Temperature: 28 F (-2 C)
Windchill: 19 F (-7 C):1
Dew Point: 24 F (-4 C)
Relative Humidity: 86%
Pressure (altimeter): 29.74 in. Hg (1007 hPa)
ob: EBCI 240120Z 02007KT 340V050 4500 BR FEW007 BKN009 M02/M04 Q1007 R24/450095 NOSIG
cycle: 1

Bruxelles National, Belgium (EBBR) 50-54N 004-32E 58M
Jan 23, 2019 - 08:20 PM EST / 2019.01.24 0120 UTC
Wind: from the NNE (030 degrees) at 5 MPH (4 KT):0
Visibility: 3 mile(s):0
Sky conditions: mostly cloudy
Temperature: 30 F (-1 C)
Windchill: 24 F (-4 C):1
Dew Point: 26 F (-3 C)
Relative Humidity: 86%
Pressure (altimeter): 29.74 in. Hg (1007 hPa)
ob: EBBR 240120Z 03004KT 6000 BKN012 M01/M03 Q1007 R25R/CLRD// R01/592091 R25L/CLRD// NOSIG
cycle: 1

Koksijde, Belgium (EBFN) 51-05N 002-39E 9M
Jan 23, 2019 - 08:25 PM EST / 2019.01.24 0125 UTC
Wind: Variable at 2 MPH (2 KT):0
Visibility: less than 1 mile:0
Weather: fog
Temperature: 26 F (-3 C)
Dew Point: 24 F (-4 C)
Relative Humidity: 92%
Pressure (altimeter): 29.80 in. Hg (1009 hPa)
ob: EBFN 240125Z AUTO VRB02KT 0600 FG NCD M03/M04 Q1009 RED
cycle: 1

Poznan, Poland (EPPO) 52-25N 016-50E 92M
Jan 23, 2019 - 08:30 PM EST / 2019.01.24 0130 UTC
Wind: from the E (080 degrees) at 7 MPH (6 KT):0
Visibility: greater than 7 mile(s):0
Temperature: 17 F (-8 C)
Windchill: 6 F (-14 C):1
Dew Point: 14 F (-10 C)
Relative Humidity: 85%
Pressure (altimeter): 29.83 in. Hg (1010 hPa)
ob: EPPO 240130Z 08006KT CAVOK M08/M10 Q1010 
cycle: 1



Coucher du Soleil:
17:19:38

Lever de Lune:
20:34:44 23/01/19

Coucher de Lune:
10:02:14 23/01/19

Premier Quartier 14 janvier 2019
Pleine Lune 21 janvier 2019
Dernier Quartier 27 janvier 2019
Nouvelle Lune 4 février 2019
Âge de lune : 17 jours,22 heures,30 minutes,89%
Les heures du jour possible étaient aujourd’hui 08:49